sensor_id;sensor_type;location;lat;lon;timestamp;pressure;altitude;pressure_sealevel;temperature;humidity
75219;BME280;63801;49.414;19.474;2023-07-31T00:01:44;93592.19;;;14.12;83.26
75219;BME280;63801;49.414;19.474;2023-07-31T00:03:45;93581.31;;;14.09;83.86
75219;BME280;63801;49.414;19.474;2023-07-31T00:05:46;93591.06;;;14.17;84.51
75219;BME280;63801;49.414;19.474;2023-07-31T00:07:46;93580.31;;;14.24;84.12
75219;BME280;63801;49.414;19.474;2023-07-31T00:09:47;93583.03;;;14.27;84.34
75219;BME280;63801;49.414;19.474;2023-07-31T00:11:47;93588.97;;;14.36;84.21
75219;BME280;63801;49.414;19.474;2023-07-31T00:13:47;93587.06;;;14.41;83.85
75219;BME280;63801;49.414;19.474;2023-07-31T00:15:48;93587.50;;;14.46;83.98
75219;BME280;63801;49.414;19.474;2023-07-31T00:17:48;93595.28;;;14.51;83.71
75219;BME280;63801;49.414;19.474;2023-07-31T00:19:48;93599.97;;;14.58;84.06
75219;BME280;63801;49.414;19.474;2023-07-31T00:21:50;93602.34;;;14.63;84.05
75219;BME280;63801;49.414;19.474;2023-07-31T00:23:51;93566.53;;;14.43;83.18
75219;BME280;63801;49.414;19.474;2023-07-31T00:25:51;93596.47;;;14.57;83.05
75219;BME280;63801;49.414;19.474;2023-07-31T00:27:51;93582.09;;;14.50;83.39
75219;BME280;63801;49.414;19.474;2023-07-31T00:29:51;93596.03;;;14.52;83.90
75219;BME280;63801;49.414;19.474;2023-07-31T00:31:52;93598.47;;;14.64;84.37
75219;BME280;63801;49.414;19.474;2023-07-31T00:33:52;93598.47;;;14.64;84.34
75219;BME280;63801;49.414;19.474;2023-07-31T00:35:52;93602.44;;;14.77;84.50
75219;BME280;63801;49.414;19.474;2023-07-31T00:37:53;93605.56;;;14.82;84.19
75219;BME280;63801;49.414;19.474;2023-07-31T00:39:53;93603.66;;;14.87;84.30
75219;BME280;63801;49.414;19.474;2023-07-31T00:41:53;93602.53;;;14.95;84.62
75219;BME280;63801;49.414;19.474;2023-07-31T00:43:54;93603.34;;;14.99;84.29
75219;BME280;63801;49.414;19.474;2023-07-31T00:45:54;93599.53;;;15.14;85.04
75219;BME280;63801;49.414;19.474;2023-07-31T00:47:55;93609.28;;;15.22;84.62
75219;BME280;63801;49.414;19.474;2023-07-31T00:49:55;93599.25;;;15.29;84.69
75219;BME280;63801;49.414;19.474;2023-07-31T00:51:56;93598.47;;;15.36;84.25
75219;BME280;63801;49.414;19.474;2023-07-31T00:53:57;93603.16;;;15.39;84.19
75219;BME280;63801;49.414;19.474;2023-07-31T00:55:58;93601.25;;;15.43;84.26
75219;BME280;63801;49.414;19.474;2023-07-31T00:57:59;93582.97;;;15.37;84.22
75219;BME280;63801;49.414;19.474;2023-07-31T00:59:59;93598.13;;;15.41;83.97
75219;BME280;63801;49.414;19.474;2023-07-31T01:02:00;93581.81;;;15.38;84.44
75219;BME280;63801;49.414;19.474;2023-07-31T01:04:01;93587.66;;;15.43;84.22
75219;BME280;63801;49.414;19.474;2023-07-31T01:10:38;93595.81;;;15.43;84.11
75219;BME280;63801;49.414;19.474;2023-07-31T01:12:41;93591.94;;;15.44;84.29
75219;BME280;63801;49.414;19.474;2023-07-31T01:17:03;93600.84;;;15.45;84.17
75219;BME280;63801;49.414;19.474;2023-07-31T01:19:05;93592.69;;;15.45;84.19
75219;BME280;63801;49.414;19.474;2023-07-31T01:26:16;93599.34;;;15.54;84.01
75219;BME280;63801;49.414;19.474;2023-07-31T01:28:35;93590.47;;;15.57;84.09
75219;BME280;63801;49.414;19.474;2023-07-31T01:30:44;93591.25;;;15.61;84.33
75219;BME280;63801;49.414;19.474;2023-07-31T01:32:48;93587.75;;;15.64;84.45
75219;BME280;63801;49.414;19.474;2023-07-31T01:34:50;93589.69;;;15.67;84.28
75219;BME280;63801;49.414;19.474;2023-07-31T01:36:51;93593.59;;;15.70;84.06
75219;BME280;63801;49.414;19.474;2023-07-31T01:38:51;93577.25;;;15.63;84.14
75219;BME280;63801;49.414;19.474;2023-07-31T01:40:52;93596.69;;;15.76;83.83
75219;BME280;63801;49.414;19.474;2023-07-31T01:42:53;93590.88;;;15.73;83.76
75219;BME280;63801;49.414;19.474;2023-07-31T01:44:53;93595.19;;;15.78;84.34
75219;BME280;63801;49.414;19.474;2023-07-31T01:46:54;93597.91;;;15.82;84.10
75219;BME280;63801;49.414;19.474;2023-07-31T01:48:54;93598.31;;;15.84;84.25
75219;BME280;63801;49.414;19.474;2023-07-31T01:50:54;93601.41;;;15.86;83.89
75219;BME280;63801;49.414;19.474;2023-07-31T01:52:55;93599.47;;;15.86;84.03
75219;BME280;63801;49.414;19.474;2023-07-31T01:54:55;93597.91;;;15.85;83.71
75219;BME280;63801;49.414;19.474;2023-07-31T01:56:55;93583.53;;;15.85;83.53
75219;BME280;63801;49.414;19.474;2023-07-31T01:58:56;93597.91;;;15.85;83.87
75219;BME280;63801;49.414;19.474;2023-07-31T02:00:56;93591.31;;;15.83;83.82
75219;BME280;63801;49.414;19.474;2023-07-31T02:02:56;93594.41;;;15.78;83.39
75219;BME280;63801;49.414;19.474;2023-07-31T02:04:57;93574.16;;;15.68;83.68
75219;BME280;63801;49.414;19.474;2023-07-31T02:06:57;93581.16;;;15.72;83.79
75219;BME280;63801;49.414;19.474;2023-07-31T02:08:57;93581.94;;;15.69;83.82
75219;BME280;63801;49.414;19.474;2023-07-31T02:10:58;93578.81;;;15.67;83.97
75219;BME280;63801;49.414;19.474;2023-07-31T02:12:58;93585.81;;;15.68;84.02
75219;BME280;63801;49.414;19.474;2023-07-31T02:14:58;93596.31;;;15.66;83.96
75219;BME280;63801;49.414;19.474;2023-07-31T02:16:58;93591.25;;;15.65;84.11
75219;BME280;63801;49.414;19.474;2023-07-31T02:18:59;93595.91;;;15.64;83.90
75219;BME280;63801;49.414;19.474;2023-07-31T02:20:59;93594.34;;;15.60;84.14
75219;BME280;63801;49.414;19.474;2023-07-31T02:22:59;93594.34;;;15.63;83.90
75219;BME280;63801;49.414;19.474;2023-07-31T02:25:00;93585.03;;;15.57;84.11
75219;BME280;63801;49.414;19.474;2023-07-31T02:27:00;93599.78;;;15.63;84.35
75219;BME280;63801;49.414;19.474;2023-07-31T02:29:00;93587.72;;;15.54;84.23
75219;BME280;63801;49.414;19.474;2023-07-31T02:31:01;93596.28;;;15.59;83.78
75219;BME280;63801;49.414;19.474;2023-07-31T02:33:01;93604.03;;;15.57;83.91
75219;BME280;63801;49.414;19.474;2023-07-31T02:35:01;93607.91;;;15.56;84.44
75219;BME280;63801;49.414;19.474;2023-07-31T02:37:02;93611.41;;;15.57;84.11
75219;BME280;63801;49.414;19.474;2023-07-31T02:39:02;93608.28;;;15.58;84.35
75219;BME280;63801;49.414;19.474;2023-07-31T02:41:02;93602.47;;;15.53;84.25
75219;BME280;63801;49.414;19.474;2023-07-31T02:43:03;93613.78;;;15.62;83.91
75219;BME280;63801;49.414;19.474;2023-07-31T02:45:03;93613.78;;;15.65;83.88
75219;BME280;63801;49.414;19.474;2023-07-31T02:47:04;93609.50;;;15.64;84.21
75219;BME280;63801;49.414;19.474;2023-07-31T02:49:04;93608.34;;;15.65;83.87
75219;BME280;63801;49.414;19.474;2023-07-31T02:51:05;93609.88;;;15.63;84.12
75219;BME280;63801;49.414;19.474;2023-07-31T02:53:05;93621.91;;;15.62;84.08
75219;BME280;63801;49.414;19.474;2023-07-31T02:55:06;93624.63;;;15.62;83.99
75219;BME280;63801;49.414;19.474;2023-07-31T02:57:06;93619.59;;;15.64;84.02
75219;BME280;63801;49.414;19.474;2023-07-31T02:59:06;93611.44;;;15.64;83.87
75219;BME280;63801;49.414;19.474;2023-07-31T03:01:07;93616.88;;;15.64;84.13
75219;BME280;63801;49.414;19.474;2023-07-31T03:03:07;93619.97;;;15.62;84.23
75219;BME280;63801;49.414;19.474;2023-07-31T03:05:07;93615.28;;;15.59;84.65
75219;BME280;63801;49.414;19.474;2023-07-31T03:07:08;93619.19;;;15.62;84.46
75219;BME280;63801;49.414;19.474;2023-07-31T03:09:08;93599.75;;;15.53;84.45
75219;BME280;63801;49.414;19.474;2023-07-31T03:11:08;93619.22;;;15.65;84.67
75219;BME280;63801;49.414;19.474;2023-07-31T03:13:09;93620.38;;;15.68;84.56
75219;BME280;63801;49.414;19.474;2023-07-31T03:15:09;93606.78;;;15.68;84.44
75219;BME280;63801;49.414;19.474;2023-07-31T03:17:10;93619.22;;;15.72;84.56
75219;BME280;63801;49.414;19.474;2023-07-31T03:19:10;93615.34;;;15.70;84.71
75219;BME280;63801;49.414;19.474;2023-07-31T03:21:10;93607.56;;;15.65;84.28
75219;BME280;63801;49.414;19.474;2023-07-31T03:23:11;93612.22;;;15.71;84.33
75219;BME280;63801;49.414;19.474;2023-07-31T03:25:11;93600.56;;;15.64;84.58
75219;BME280;63801;49.414;19.474;2023-07-31T03:27:12;93612.63;;;15.70;84.48
75219;BME280;63801;49.414;19.474;2023-07-31T03:29:13;93630.13;;;15.80;84.42
75219;BME280;63801;49.414;19.474;2023-07-31T03:31:13;93610.69;;;15.78;84.42
75219;BME280;63801;49.414;19.474;2023-07-31T03:33:13;93627.81;;;15.82;84.40
75219;BME280;63801;49.414;19.474;2023-07-31T03:35:14;93623.16;;;15.82;84.24
75219;BME280;63801;49.414;19.474;2023-07-31T03:37:14;93611.91;;;15.84;84.52
75219;BME280;63801;49.414;19.474;2023-07-31T03:39:14;93618.88;;;15.85;84.17
75219;BME280;63801;49.414;19.474;2023-07-31T03:41:14;93619.66;;;15.85;83.95
75219;BME280;63801;49.414;19.474;2023-07-31T03:43:15;93616.16;;;15.81;84.28
75219;BME280;63801;49.414;19.474;2023-07-31T03:45:15;93620.06;;;15.91;84.17
75219;BME280;63801;49.414;19.474;2023-07-31T03:47:16;93620.47;;;15.93;83.96
75219;BME280;63801;49.414;19.474;2023-07-31T03:49:16;93626.69;;;15.97;84.08
75219;BME280;63801;49.414;19.474;2023-07-31T03:51:17;93629.78;;;16.02;83.91
75219;BME280;63801;49.414;19.474;2023-07-31T03:53:17;93621.66;;;16.06;84.22
75219;BME280;63801;49.414;19.474;2023-07-31T03:55:18;93624.75;;;16.11;84.36
75219;BME280;63801;49.414;19.474;2023-07-31T03:57:18;93630.22;;;16.18;83.89
75219;BME280;63801;49.414;19.474;2023-07-31T03:59:18;93631.38;;;16.21;83.76
75219;BME280;63801;49.414;19.474;2023-07-31T04:01:19;93632.53;;;16.20;83.61
75219;BME280;63801;49.414;19.474;2023-07-31T04:03:20;93629.81;;;16.20;83.65
75219;BME280;63801;49.414;19.474;2023-07-31T04:05:20;93631.00;;;16.23;83.45
75219;BME280;63801;49.414;19.474;2023-07-31T04:07:20;93644.22;;;16.24;84.15
75219;BME280;63801;49.414;19.474;2023-07-31T04:09:21;93638.38;;;16.22;83.70
75219;BME280;63801;49.414;19.474;2023-07-31T04:11:21;93640.69;;;16.20;83.60
75219;BME280;63801;49.414;19.474;2023-07-31T04:13:22;93637.97;;;16.20;83.39
75219;BME280;63801;49.414;19.474;2023-07-31T04:15:22;93639.16;;;16.19;83.54
75219;BME280;63801;49.414;19.474;2023-07-31T04:17:23;93637.22;;;16.20;83.50
75219;BME280;63801;49.414;19.474;2023-07-31T04:19:24;93640.31;;;16.18;83.57
75219;BME280;63801;49.414;19.474;2023-07-31T04:21:24;93641.09;;;16.22;83.42
75219;BME280;63801;49.414;19.474;2023-07-31T04:23:25;93648.91;;;16.27;83.50
75219;BME280;63801;49.414;19.474;2023-07-31T04:25:25;93644.22;;;16.28;83.88
75219;BME280;63801;49.414;19.474;2023-07-31T04:27:25;93645.00;;;16.32;83.86
75219;BME280;63801;49.414;19.474;2023-07-31T04:29:26;93640.72;;;16.27;83.74
75219;BME280;63801;49.414;19.474;2023-07-31T04:31:26;93646.56;;;16.36;83.96
75219;BME280;63801;49.414;19.474;2023-07-31T04:33:26;93648.91;;;16.38;83.44
75219;BME280;63801;49.414;19.474;2023-07-31T04:35:27;93648.50;;;16.39;83.37
75219;BME280;63801;49.414;19.474;2023-07-31T04:37:27;93646.56;;;16.43;83.49
75219;BME280;63801;49.414;19.474;2023-07-31T04:39:27;93653.56;;;16.44;83.44
75219;BME280;63801;49.414;19.474;2023-07-31T04:41:28;93649.69;;;16.45;83.37
75219;BME280;63801;49.414;19.474;2023-07-31T04:43:28;93641.13;;;16.36;83.27
75219;BME280;63801;49.414;19.474;2023-07-31T04:45:28;93641.91;;;16.37;83.79
75219;BME280;63801;49.414;19.474;2023-07-31T04:47:29;93651.63;;;16.45;83.46
75219;BME280;63801;49.414;19.474;2023-07-31T04:49:29;93655.16;;;16.42;83.11
75219;BME280;63801;49.414;19.474;2023-07-31T04:51:29;93655.91;;;16.35;83.57
75219;BME280;63801;49.414;19.474;2023-07-31T04:53:30;93660.19;;;16.33;83.40
75219;BME280;63801;49.414;19.474;2023-07-31T04:55:30;93652.78;;;16.30;83.64
75219;BME280;63801;49.414;19.474;2023-07-31T04:57:30;93645.00;;;16.25;83.60
75219;BME280;63801;49.414;19.474;2023-07-31T04:59:31;93655.13;;;16.35;83.70
75219;BME280;63801;49.414;19.474;2023-07-31T05:01:31;93636.44;;;16.33;84.22
75219;BME280;63801;49.414;19.474;2023-07-31T05:03:32;93648.94;;;16.84;85.47
75219;BME280;63801;49.414;19.474;2023-07-31T05:05:32;93649.63;;;17.44;84.56
75219;BME280;63801;49.414;19.474;2023-07-31T05:07:33;93656.88;;;17.97;82.34
75219;BME280;63801;49.414;19.474;2023-07-31T05:09:33;93657.22;;;18.03;81.27
75219;BME280;63801;49.414;19.474;2023-07-31T05:11:33;93656.47;;;17.99;80.97
75219;BME280;63801;49.414;19.474;2023-07-31T05:13:34;93652.66;;;17.82;80.77
75219;BME280;63801;49.414;19.474;2023-07-31T05:15:34;93655.41;;;17.71;81.04
75219;BME280;63801;49.414;19.474;2023-07-31T05:17:34;93651.56;;;17.62;80.96
75219;BME280;63801;49.414;19.474;2023-07-31T05:19:34;93651.16;;;17.52;80.77
75219;BME280;63801;49.414;19.474;2023-07-31T05:21:35;93650.81;;;17.40;81.23
75219;BME280;63801;49.414;19.474;2023-07-31T05:23:35;93639.56;;;17.27;81.23
75219;BME280;63801;49.414;19.474;2023-07-31T05:25:35;93652.78;;;17.32;81.67
75219;BME280;63801;49.414;19.474;2023-07-31T05:27:36;93661.34;;;17.34;81.60
75219;BME280;63801;49.414;19.474;2023-07-31T05:29:36;93655.88;;;17.41;82.04
75219;BME280;63801;49.414;19.474;2023-07-31T05:31:36;93650.41;;;17.48;82.02
75219;BME280;63801;49.414;19.474;2023-07-31T05:33:38;93652.34;;;17.59;81.88
75219;BME280;63801;49.414;19.474;2023-07-31T05:35:38;93652.66;;;17.75;82.50
75219;BME280;63801;49.414;19.474;2023-07-31T05:37:39;93651.06;;;17.88;82.40
75219;BME280;63801;49.414;19.474;2023-07-31T05:39:39;93654.50;;;18.03;82.24
75219;BME280;63801;49.414;19.474;2023-07-31T05:41:39;93655.22;;;18.17;81.71
75219;BME280;63801;49.414;19.474;2023-07-31T05:43:40;93657.91;;;18.24;81.56
75219;BME280;63801;49.414;19.474;2023-07-31T05:45:42;93663.34;;;18.28;81.25
75219;BME280;63801;49.414;19.474;2023-07-31T05:47:42;93657.53;;;18.22;80.99
75219;BME280;63801;49.414;19.474;2023-07-31T05:49:43;93661.09;;;18.12;79.90
75219;BME280;63801;49.414;19.474;2023-07-31T05:51:44;93656.09;;;17.93;79.64
75219;BME280;63801;49.414;19.474;2023-07-31T05:53:44;93657.38;;;17.74;79.68
75219;BME280;63801;49.414;19.474;2023-07-31T05:55:44;93652.72;;;17.53;79.06
75219;BME280;63801;49.414;19.474;2023-07-31T05:57:45;93655.88;;;17.31;78.86
75219;BME280;63801;49.414;19.474;2023-07-31T05:59:46;93652.81;;;17.15;79.08
75219;BME280;63801;49.414;19.474;2023-07-31T06:01:46;93650.50;;;17.06;79.30
75219;BME280;63801;49.414;19.474;2023-07-31T06:03:46;93651.69;;;16.98;79.29
75219;BME280;63801;49.414;19.474;2023-07-31T06:05:46;93648.94;;;16.91;79.59
75219;BME280;63801;49.414;19.474;2023-07-31T06:07:47;93657.91;;;16.81;79.00
75219;BME280;63801;49.414;19.474;2023-07-31T06:09:47;93656.72;;;16.75;79.46
75219;BME280;63801;49.414;19.474;2023-07-31T06:11:47;93647.41;;;16.65;79.48
75219;BME280;63801;49.414;19.474;2023-07-31T06:13:48;93658.28;;;16.69;79.45
75219;BME280;63801;49.414;19.474;2023-07-31T06:15:49;93664.13;;;16.67;79.55
75219;BME280;63801;49.414;19.474;2023-07-31T06:17:49;93661.78;;;16.66;79.23
75219;BME280;63801;49.414;19.474;2023-07-31T06:19:51;93650.09;;;16.54;79.37
75219;BME280;63801;49.414;19.474;2023-07-31T06:21:52;93645.03;;;16.53;78.96
75219;BME280;63801;49.414;19.474;2023-07-31T06:23:52;93663.34;;;16.59;78.67
75219;BME280;63801;49.414;19.474;2023-07-31T06:25:52;93662.16;;;16.60;78.40
75219;BME280;63801;49.414;19.474;2023-07-31T06:27:52;93663.72;;;16.61;78.81
75219;BME280;63801;49.414;19.474;2023-07-31T06:29:53;93664.50;;;16.62;78.62
75219;BME280;63801;49.414;19.474;2023-07-31T06:31:53;93658.28;;;16.61;78.03
75219;BME280;63801;49.414;19.474;2023-07-31T06:33:53;93664.91;;;16.68;78.43
75219;BME280;63801;49.414;19.474;2023-07-31T06:35:54;93675.41;;;16.80;78.62
75219;BME280;63801;49.414;19.474;2023-07-31T06:37:54;93668.81;;;16.95;78.22
75219;BME280;63801;49.414;19.474;2023-07-31T06:39:54;93663.31;;;17.09;78.19
75219;BME280;63801;49.414;19.474;2023-07-31T06:41:55;93669.94;;;17.26;78.05
75219;BME280;63801;49.414;19.474;2023-07-31T06:43:55;93661.72;;;17.36;77.98
75219;BME280;63801;49.414;19.474;2023-07-31T06:45:55;93671.84;;;17.61;77.30
75219;BME280;63801;49.414;19.474;2023-07-31T06:47:56;93655.06;;;17.66;77.14
75219;BME280;63801;49.414;19.474;2023-07-31T06:49:56;93671.31;;;17.94;76.59
75219;BME280;63801;49.414;19.474;2023-07-31T06:51:57;93680.09;;;18.30;77.31
75219;BME280;63801;49.414;19.474;2023-07-31T06:53:57;93672.16;;;19.08;76.53
75219;BME280;63801;49.414;19.474;2023-07-31T06:55:58;93667.13;;;19.48;75.01
75219;BME280;63801;49.414;19.474;2023-07-31T06:57:58;93680.06;;;19.81;74.14
75219;BME280;63801;49.414;19.474;2023-07-31T06:59:58;93685.03;;;19.90;73.56
75219;BME280;63801;49.414;19.474;2023-07-31T07:01:59;93686.59;;;19.91;73.78
75219;BME280;63801;49.414;19.474;2023-07-31T07:03:59;93684.72;;;19.84;73.00
75219;BME280;63801;49.414;19.474;2023-07-31T07:05:59;93694.84;;;19.87;72.72
75219;BME280;63801;49.414;19.474;2023-07-31T07:08:00;93690.28;;;19.77;72.51
75219;BME280;63801;49.414;19.474;2023-07-31T07:10:00;93697.03;;;19.65;72.37
75219;BME280;63801;49.414;19.474;2023-07-31T07:12:01;93687.00;;;19.52;72.32
75219;BME280;63801;49.414;19.474;2023-07-31T07:14:01;93690.22;;;19.40;72.55
75219;BME280;63801;49.414;19.474;2023-07-31T07:16:01;93693.88;;;19.26;72.63
75219;BME280;63801;49.414;19.474;2023-07-31T07:18:02;93698.22;;;19.20;72.41
75219;BME280;63801;49.414;19.474;2023-07-31T07:20:03;93700.22;;;19.12;73.00
75219;BME280;63801;49.414;19.474;2023-07-31T07:22:04;93695.56;;;19.09;72.92
75219;BME280;63801;49.414;19.474;2023-07-31T07:24:04;93711.16;;;19.12;72.86
75219;BME280;63801;49.414;19.474;2023-07-31T07:26:05;93701.44;;;19.11;72.42
75219;BME280;63801;49.414;19.474;2023-07-31T07:28:05;93707.28;;;19.10;72.85
75219;BME280;63801;49.414;19.474;2023-07-31T07:30:06;93706.91;;;19.11;72.47
75219;BME280;63801;49.414;19.474;2023-07-31T07:32:07;93705.28;;;19.14;72.24
75219;BME280;63801;49.414;19.474;2023-07-31T07:34:07;93704.09;;;19.18;71.78
75219;BME280;63801;49.414;19.474;2023-07-31T07:36:08;93704.09;;;19.18;72.04
75219;BME280;63801;49.414;19.474;2023-07-31T07:38:09;93708.38;;;19.19;71.77
75219;BME280;63801;49.414;19.474;2023-07-31T07:40:10;93705.22;;;19.21;71.71
75219;BME280;63801;49.414;19.474;2023-07-31T07:42:10;93716.94;;;19.21;71.51
75219;BME280;63801;49.414;19.474;2023-07-31T07:44:11;93712.25;;;19.22;71.54
75219;BME280;63801;49.414;19.474;2023-07-31T07:46:11;93713.03;;;19.22;71.36
75219;BME280;63801;49.414;19.474;2023-07-31T07:48:11;93716.16;;;19.24;71.49
75219;BME280;63801;49.414;19.474;2023-07-31T07:50:12;93714.22;;;19.21;71.28
75219;BME280;63801;49.414;19.474;2023-07-31T07:52:12;93724.34;;;19.21;71.12
75219;BME280;63801;49.414;19.474;2023-07-31T07:54:12;93728.31;;;19.16;71.02
75219;BME280;63801;49.414;19.474;2023-07-31T07:56:13;93731.03;;;19.16;71.23
75219;BME280;63801;49.414;19.474;2023-07-31T07:58:13;93726.66;;;19.26;71.55
75219;BME280;63801;49.414;19.474;2023-07-31T08:00:13;93728.16;;;19.38;71.50
75219;BME280;63801;49.414;19.474;2023-07-31T08:02:14;93725.31;;;19.48;70.75
75219;BME280;63801;49.414;19.474;2023-07-31T08:04:14;93727.16;;;19.62;70.07
75219;BME280;63801;49.414;19.474;2023-07-31T08:06:14;93724.63;;;19.82;69.49
75219;BME280;63801;49.414;19.474;2023-07-31T08:08:15;93724.88;;;19.94;69.50
75219;BME280;63801;49.414;19.474;2023-07-31T08:10:16;93730.53;;;20.10;69.56
75219;BME280;63801;49.414;19.474;2023-07-31T08:12:16;93732.28;;;20.28;68.96
75219;BME280;63801;49.414;19.474;2023-07-31T08:14:17;93725.94;;;20.38;68.64
75219;BME280;63801;49.414;19.474;2023-07-31T08:16:17;93737.84;;;20.54;68.32
75219;BME280;63801;49.414;19.474;2023-07-31T08:18:17;93725.94;;;20.68;67.78
75219;BME280;63801;49.414;19.474;2023-07-31T08:20:18;93731.72;;;20.74;66.53
75219;BME280;63801;49.414;19.474;2023-07-31T08:22:18;93729.84;;;20.67;65.42
75219;BME280;63801;49.414;19.474;2023-07-31T08:24:18;93738.56;;;20.62;65.39
75219;BME280;63801;49.414;19.474;2023-07-31T08:26:19;93733.88;;;20.59;65.70
75219;BME280;63801;49.414;19.474;2023-07-31T08:28:20;93735.84;;;20.58;65.47
75219;BME280;63801;49.414;19.474;2023-07-31T08:30:21;93733.94;;;20.55;65.31
75219;BME280;63801;49.414;19.474;2023-07-31T08:32:22;93745.66;;;20.56;65.40
75219;BME280;63801;49.414;19.474;2023-07-31T08:34:22;93744.50;;;20.57;65.00
75219;BME280;63801;49.414;19.474;2023-07-31T08:36:22;93740.19;;;20.56;64.99
75219;BME280;63801;49.414;19.474;2023-07-31T08:38:23;93743.38;;;20.51;65.18
75219;BME280;63801;49.414;19.474;2023-07-31T08:40:25;93746.84;;;20.55;65.06
75219;BME280;63801;49.414;19.474;2023-07-31T08:42:27;93741.63;;;20.64;65.14
75219;BME280;63801;49.414;19.474;2023-07-31T08:44:27;93730.81;;;20.84;65.07
75219;BME280;63801;49.414;19.474;2023-07-31T08:46:29;93743.25;;;21.19;64.04
75219;BME280;63801;49.414;19.474;2023-07-31T08:48:31;93741.16;;;21.49;63.98
75219;BME280;63801;49.414;19.474;2023-07-31T08:50:32;93738.53;;;21.66;63.54
75219;BME280;63801;49.414;19.474;2023-07-31T08:52:32;93746.56;;;22.00;62.34
75219;BME280;63801;49.414;19.474;2023-07-31T08:54:33;93736.13;;;22.34;62.42
75219;BME280;63801;49.414;19.474;2023-07-31T08:56:33;93734.25;;;22.67;61.45
75219;BME280;63801;49.414;19.474;2023-07-31T08:58:34;93736.13;;;22.90;60.37
75219;BME280;63801;49.414;19.474;2023-07-31T09:00:36;93728.84;;;22.99;60.25
75219;BME280;63801;49.414;19.474;2023-07-31T09:02:41;93729.31;;;23.14;60.22
75219;BME280;63801;49.414;19.474;2023-07-31T09:04:44;93729.91;;;23.21;59.54
75219;BME280;63801;49.414;19.474;2023-07-31T09:06:44;93714.31;;;23.15;59.48
75219;BME280;63801;49.414;19.474;2023-07-31T09:08:45;93730.22;;;23.23;59.37
75219;BME280;63801;49.414;19.474;2023-07-31T09:10:46;93719.50;;;23.29;59.63
75219;BME280;63801;49.414;19.474;2023-07-31T09:12:48;93717.53;;;23.29;57.93
75219;BME280;63801;49.414;19.474;2023-07-31T09:14:49;93722.44;;;23.38;58.14
75219;BME280;63801;49.414;19.474;2023-07-31T09:16:56;93713.94;;;23.49;56.15
75219;BME280;63801;49.414;19.474;2023-07-31T09:18:58;93716.59;;;23.52;56.16
75219;BME280;63801;49.414;19.474;2023-07-31T09:21:02;93718.13;;;23.69;57.38
75219;BME280;63801;49.414;19.474;2023-07-31T09:23:13;93707.19;;;23.82;56.45
75219;BME280;63801;49.414;19.474;2023-07-31T09:25:18;93717.44;;;24.10;56.52
75219;BME280;63801;49.414;19.474;2023-07-31T09:27:18;93697.72;;;24.28;54.73
75219;BME280;63801;49.414;19.474;2023-07-31T09:29:19;93698.13;;;24.27;53.01
75219;BME280;63801;49.414;19.474;2023-07-31T09:31:40;93713.22;;;24.22;53.79
75219;BME280;63801;49.414;19.474;2023-07-31T09:33:54;93706.06;;;24.25;51.85
75219;BME280;63801;49.414;19.474;2023-07-31T09:35:58;93703.63;;;24.27;52.05
75219;BME280;63801;49.414;19.474;2023-07-31T09:38:00;93716.34;;;24.37;52.84
75219;BME280;63801;49.414;19.474;2023-07-31T09:40:03;93713.38;;;24.44;51.71
75219;BME280;63801;49.414;19.474;2023-07-31T09:42:03;93703.34;;;24.37;51.38
75219;BME280;63801;49.414;19.474;2023-07-31T09:44:04;93704.63;;;24.20;51.91
75219;BME280;63801;49.414;19.474;2023-07-31T09:46:13;93693.59;;;24.20;51.48
75219;BME280;63801;49.414;19.474;2023-07-31T09:48:18;93699.84;;;23.92;50.84
75219;BME280;63801;49.414;19.474;2023-07-31T09:50:21;93703.84;;;23.75;51.04
75219;BME280;63801;49.414;19.474;2023-07-31T09:52:21;93691.47;;;23.66;50.88
75219;BME280;63801;49.414;19.474;2023-07-31T09:54:22;93694.84;;;23.58;51.54
75219;BME280;63801;49.414;19.474;2023-07-31T09:56:23;93696.47;;;23.55;51.61
75219;BME280;63801;49.414;19.474;2023-07-31T09:58:24;93685.03;;;23.57;51.90
75219;BME280;63801;49.414;19.474;2023-07-31T10:00:25;93669.34;;;23.70;52.03
75219;BME280;63801;49.414;19.474;2023-07-31T10:02:30;93685.75;;;23.90;51.24
75219;BME280;63801;49.414;19.474;2023-07-31T10:04:32;93692.16;;;23.99;51.30
75219;BME280;63801;49.414;19.474;2023-07-31T10:06:33;93677.94;;;24.17;51.02
75219;BME280;63801;49.414;19.474;2023-07-31T10:08:34;93679.53;;;24.43;50.91
75219;BME280;63801;49.414;19.474;2023-07-31T10:10:37;93680.19;;;24.47;50.33
75219;BME280;63801;49.414;19.474;2023-07-31T10:12:41;93678.00;;;24.42;50.54
75219;BME280;63801;49.414;19.474;2023-07-31T10:14:43;93681.09;;;24.44;49.92
75219;BME280;63801;49.414;19.474;2023-07-31T10:16:43;93686.50;;;24.48;50.39
75219;BME280;63801;49.414;19.474;2023-07-31T10:18:44;93674.91;;;24.40;49.30
75219;BME280;63801;49.414;19.474;2023-07-31T10:20:47;93675.78;;;24.37;49.93
75219;BME280;63801;49.414;19.474;2023-07-31T10:22:47;93679.75;;;24.36;49.78
75219;BME280;63801;49.414;19.474;2023-07-31T10:24:50;93670.06;;;24.44;50.17
75219;BME280;63801;49.414;19.474;2023-07-31T10:26:51;93670.00;;;24.60;49.86
75219;BME280;63801;49.414;19.474;2023-07-31T10:28:52;93677.28;;;24.80;49.70
75219;BME280;63801;49.414;19.474;2023-07-31T10:30:54;93672.25;;;24.91;50.18
75219;BME280;63801;49.414;19.474;2023-07-31T10:32:55;93667.28;;;24.86;49.99
75219;BME280;63801;49.414;19.474;2023-07-31T10:34:57;93655.09;;;24.71;48.78
75219;BME280;63801;49.414;19.474;2023-07-31T10:37:36;93654.44;;;24.67;48.38
75219;BME280;63801;49.414;19.474;2023-07-31T10:39:37;93662.72;;;24.79;49.59
75219;BME280;63801;49.414;19.474;2023-07-31T10:41:40;93651.28;;;24.93;49.42
75219;BME280;63801;49.414;19.474;2023-07-31T10:43:40;93633.09;;;24.96;48.20
75219;BME280;63801;49.414;19.474;2023-07-31T10:45:44;93655.56;;;25.07;48.40